sensor_id;sensor_type;location;lat;lon;timestamp;temperature;humidity
52167;DHT22;38149;52.666;6.428;2022-10-16T00:01:07;13.50;99.90
52167;DHT22;38149;52.666;6.428;2022-10-16T00:06:06;13.40;99.90
52167;DHT22;38149;52.666;6.428;2022-10-16T00:08:33;13.70;99.90
52167;DHT22;38149;52.666;6.428;2022-10-16T00:11:14;13.40;99.90
52167;DHT22;38149;52.666;6.428;2022-10-16T00:13:43;13.50;99.90
52167;DHT22;38149;52.666;6.428;2022-10-16T00:16:12;13.60;99.90
52167;DHT22;38149;52.666;6.428;2022-10-16T00:18:39;13.60;99.90
52167;DHT22;38149;52.666;6.428;2022-10-16T00:21:13;13.60;99.90
52167;DHT22;38149;52.666;6.428;2022-10-16T00:23:44;13.40;99.90
52167;DHT22;38149;52.666;6.428;2022-10-16T00:26:16;13.70;99.90
52167;DHT22;38149;52.666;6.428;2022-10-16T00:28:42;13.60;99.90
52167;DHT22;38149;52.666;6.428;2022-10-16T00:31:10;13.60;99.90
52167;DHT22;38149;52.666;6.428;2022-10-16T00:33:38;13.50;99.90
52167;DHT22;38149;52.666;6.428;2022-10-16T00:36:06;13.70;99.90
52167;DHT22;38149;52.666;6.428;2022-10-16T00:38:33;13.40;99.90
52167;DHT22;38149;52.666;6.428;2022-10-16T00:40:59;13.50;99.90
52167;DHT22;38149;52.666;6.428;2022-10-16T00:43:43;13.60;99.90
52167;DHT22;38149;52.666;6.428;2022-10-16T00:46:23;13.30;99.90
52167;DHT22;38149;52.666;6.428;2022-10-16T00:49:04;13.10;99.90
52167;DHT22;38149;52.666;6.428;2022-10-16T00:54:04;13.90;99.90
52167;DHT22;38149;52.666;6.428;2022-10-16T00:56:33;12.60;99.90
52167;DHT22;38149;52.666;6.428;2022-10-16T01:01:29;13.10;99.90
52167;DHT22;38149;52.666;6.428;2022-10-16T01:03:55;13.10;99.90
52167;DHT22;38149;52.666;6.428;2022-10-16T01:06:51;13.10;99.90
52167;DHT22;38149;52.666;6.428;2022-10-16T01:15:04;13.00;99.90
52167;DHT22;38149;52.666;6.428;2022-10-16T01:23:21;13.10;99.90
52167;DHT22;38149;52.666;6.428;2022-10-16T01:31:23;13.10;99.90
52167;DHT22;38149;52.666;6.428;2022-10-16T01:34:00;13.50;99.90
52167;DHT22;38149;52.666;6.428;2022-10-16T01:51:48;13.00;99.90
52167;DHT22;38149;52.666;6.428;2022-10-16T01:54:18;12.90;99.90
52167;DHT22;38149;52.666;6.428;2022-10-16T01:56:46;12.90;99.90
52167;DHT22;38149;52.666;6.428;2022-10-16T01:59:17;12.90;99.90
52167;DHT22;38149;52.666;6.428;2022-10-16T02:01:52;12.90;99.90
52167;DHT22;38149;52.666;6.428;2022-10-16T02:07:10;12.90;99.90
52167;DHT22;38149;52.666;6.428;2022-10-16T02:09:36;12.90;99.90
52167;DHT22;38149;52.666;6.428;2022-10-16T02:12:18;12.90;99.90
52167;DHT22;38149;52.666;6.428;2022-10-16T02:14:49;12.90;99.90
52167;DHT22;38149;52.666;6.428;2022-10-16T02:17:17;12.90;99.90
52167;DHT22;38149;52.666;6.428;2022-10-16T02:19:44;12.80;99.90
52167;DHT22;38149;52.666;6.428;2022-10-16T02:22:18;12.90;99.90
52167;DHT22;38149;52.666;6.428;2022-10-16T02:25:06;12.90;99.90
52167;DHT22;38149;52.666;6.428;2022-10-16T02:30:56;12.90;99.90
52167;DHT22;38149;52.666;6.428;2022-10-16T02:33:25;13.10;99.90
52167;DHT22;38149;52.666;6.428;2022-10-16T02:35:52;12.90;99.90
52167;DHT22;38149;52.666;6.428;2022-10-16T02:38:20;12.90;99.90
52167;DHT22;38149;52.666;6.428;2022-10-16T02:40:46;12.90;99.90
52167;DHT22;38149;52.666;6.428;2022-10-16T02:43:13;12.90;99.90
52167;DHT22;38149;52.666;6.428;2022-10-16T02:45:39;13.00;99.90
52167;DHT22;38149;52.666;6.428;2022-10-16T02:48:05;13.00;99.90
52167;DHT22;38149;52.666;6.428;2022-10-16T02:50:31;13.00;99.90
52167;DHT22;38149;52.666;6.428;2022-10-16T02:52:57;13.00;99.90
52167;DHT22;38149;52.666;6.428;2022-10-16T02:55:23;13.00;99.90
52167;DHT22;38149;52.666;6.428;2022-10-16T02:57:49;13.00;99.90
52167;DHT22;38149;52.666;6.428;2022-10-16T03:00:17;13.00;99.90
52167;DHT22;38149;52.666;6.428;2022-10-16T03:02:43;13.00;99.90
52167;DHT22;38149;52.666;6.428;2022-10-16T03:05:09;13.00;99.90
52167;DHT22;38149;52.666;6.428;2022-10-16T03:07:35;12.80;99.90
52167;DHT22;38149;52.666;6.428;2022-10-16T03:10:01;13.00;99.90
52167;DHT22;38149;52.666;6.428;2022-10-16T03:12:28;13.20;99.90
52167;DHT22;38149;52.666;6.428;2022-10-16T03:14:53;13.10;99.90
52167;DHT22;38149;52.666;6.428;2022-10-16T03:17:20;12.90;99.90
52167;DHT22;38149;52.666;6.428;2022-10-16T03:19:45;13.20;99.90
52167;DHT22;38149;52.666;6.428;2022-10-16T03:22:11;13.10;99.90
52167;DHT22;38149;52.666;6.428;2022-10-16T03:24:37;13.10;99.90
52167;DHT22;38149;52.666;6.428;2022-10-16T03:27:02;12.90;99.90
52167;DHT22;38149;52.666;6.428;2022-10-16T03:29:28;13.00;99.90
52167;DHT22;38149;52.666;6.428;2022-10-16T03:31:55;12.50;99.90
52167;DHT22;38149;52.666;6.428;2022-10-16T03:34:21;13.40;99.90
52167;DHT22;38149;52.666;6.428;2022-10-16T03:36:48;13.30;99.90
52167;DHT22;38149;52.666;6.428;2022-10-16T03:39:13;13.40;99.90
52167;DHT22;38149;52.666;6.428;2022-10-16T03:41:39;13.00;99.90
52167;DHT22;38149;52.666;6.428;2022-10-16T03:44:05;13.10;99.90
52167;DHT22;38149;52.666;6.428;2022-10-16T03:46:31;13.10;99.90
52167;DHT22;38149;52.666;6.428;2022-10-16T03:48:57;13.10;99.90
52167;DHT22;38149;52.666;6.428;2022-10-16T03:51:22;13.10;99.90
52167;DHT22;38149;52.666;6.428;2022-10-16T03:53:48;13.10;99.90
52167;DHT22;38149;52.666;6.428;2022-10-16T03:56:14;13.40;99.90
52167;DHT22;38149;52.666;6.428;2022-10-16T03:58:40;13.00;99.90
52167;DHT22;38149;52.666;6.428;2022-10-16T04:01:05;13.00;99.90
52167;DHT22;38149;52.666;6.428;2022-10-16T04:03:31;13.00;99.90
52167;DHT22;38149;52.666;6.428;2022-10-16T04:05:57;13.10;99.90
52167;DHT22;38149;52.666;6.428;2022-10-16T04:08:22;13.00;99.90
52167;DHT22;38149;52.666;6.428;2022-10-16T04:10:48;13.00;99.90
52167;DHT22;38149;52.666;6.428;2022-10-16T04:13:14;12.90;99.90
52167;DHT22;38149;52.666;6.428;2022-10-16T04:15:40;12.90;99.90
52167;DHT22;38149;52.666;6.428;2022-10-16T04:18:06;13.00;99.90
52167;DHT22;38149;52.666;6.428;2022-10-16T04:20:33;12.90;99.90
52167;DHT22;38149;52.666;6.428;2022-10-16T04:22:59;13.00;99.90
52167;DHT22;38149;52.666;6.428;2022-10-16T04:25:24;13.00;99.90
52167;DHT22;38149;52.666;6.428;2022-10-16T04:27:52;13.10;99.90
52167;DHT22;38149;52.666;6.428;2022-10-16T04:30:19;13.00;99.90
52167;DHT22;38149;52.666;6.428;2022-10-16T04:32:50;12.90;99.90
52167;DHT22;38149;52.666;6.428;2022-10-16T04:35:20;12.70;99.90
52167;DHT22;38149;52.666;6.428;2022-10-16T04:37:46;12.90;99.90
52167;DHT22;38149;52.666;6.428;2022-10-16T04:40:13;13.00;99.90
52167;DHT22;38149;52.666;6.428;2022-10-16T04:42:39;13.00;99.90
52167;DHT22;38149;52.666;6.428;2022-10-16T04:45:06;13.00;99.90
52167;DHT22;38149;52.666;6.428;2022-10-16T04:47:33;13.00;99.90
52167;DHT22;38149;52.666;6.428;2022-10-16T04:49:59;13.00;99.90
52167;DHT22;38149;52.666;6.428;2022-10-16T04:52:26;12.70;99.90
52167;DHT22;38149;52.666;6.428;2022-10-16T04:54:52;13.30;99.90
52167;DHT22;38149;52.666;6.428;2022-10-16T04:57:19;13.30;99.90
52167;DHT22;38149;52.666;6.428;2022-10-16T04:59:45;12.90;99.90
52167;DHT22;38149;52.666;6.428;2022-10-16T05:02:10;12.90;99.90
52167;DHT22;38149;52.666;6.428;2022-10-16T05:04:36;12.90;99.90
52167;DHT22;38149;52.666;6.428;2022-10-16T05:07:02;12.90;99.90
52167;DHT22;38149;52.666;6.428;2022-10-16T05:09:28;12.90;99.90
52167;DHT22;38149;52.666;6.428;2022-10-16T05:11:53;12.90;99.90
52167;DHT22;38149;52.666;6.428;2022-10-16T05:14:19;12.90;99.90
52167;DHT22;38149;52.666;6.428;2022-10-16T05:16:45;13.00;99.90
52167;DHT22;38149;52.666;6.428;2022-10-16T05:19:11;12.90;99.90
52167;DHT22;38149;52.666;6.428;2022-10-16T05:21:36;12.90;99.90
52167;DHT22;38149;52.666;6.428;2022-10-16T05:24:02;12.90;99.90
52167;DHT22;38149;52.666;6.428;2022-10-16T05:26:28;12.90;99.90
52167;DHT22;38149;52.666;6.428;2022-10-16T05:28:54;12.90;99.90
52167;DHT22;38149;52.666;6.428;2022-10-16T05:31:19;12.90;99.90
52167;DHT22;38149;52.666;6.428;2022-10-16T05:33:45;12.80;99.90
52167;DHT22;38149;52.666;6.428;2022-10-16T05:36:11;12.90;99.90
52167;DHT22;38149;52.666;6.428;2022-10-16T05:38:37;12.90;99.90
52167;DHT22;38149;52.666;6.428;2022-10-16T05:43:31;12.90;99.90
52167;DHT22;38149;52.666;6.428;2022-10-16T05:45:59;12.80;99.90
52167;DHT22;38149;52.666;6.428;2022-10-16T05:48:26;12.80;99.90
52167;DHT22;38149;52.666;6.428;2022-10-16T05:51:07;12.80;99.90
52167;DHT22;38149;52.666;6.428;2022-10-16T05:53:35;12.80;99.90
52167;DHT22;38149;52.666;6.428;2022-10-16T05:56:02;12.80;99.90
52167;DHT22;38149;52.666;6.428;2022-10-16T05:58:35;12.80;99.90
52167;DHT22;38149;52.666;6.428;2022-10-16T06:01:04;12.70;99.90
52167;DHT22;38149;52.666;6.428;2022-10-16T06:06:10;12.90;99.90
52167;DHT22;38149;52.666;6.428;2022-10-16T06:08:42;12.90;99.90
52167;DHT22;38149;52.666;6.428;2022-10-16T06:11:10;13.10;99.90
52167;DHT22;38149;52.666;6.428;2022-10-16T06:13:38;12.90;99.90
52167;DHT22;38149;52.666;6.428;2022-10-16T06:16:07;12.80;99.90
52167;DHT22;38149;52.666;6.428;2022-10-16T06:18:33;12.90;99.90
52167;DHT22;38149;52.666;6.428;2022-10-16T06:20:59;12.90;99.90
52167;DHT22;38149;52.666;6.428;2022-10-16T06:23:25;13.00;99.90
52167;DHT22;38149;52.666;6.428;2022-10-16T06:25:53;13.40;99.90
52167;DHT22;38149;52.666;6.428;2022-10-16T06:28:19;12.90;99.90
52167;DHT22;38149;52.666;6.428;2022-10-16T06:30:45;13.00;99.90
52167;DHT22;38149;52.666;6.428;2022-10-16T06:33:11;12.80;99.90
52167;DHT22;38149;52.666;6.428;2022-10-16T06:35:37;13.20;99.90
52167;DHT22;38149;52.666;6.428;2022-10-16T06:38:03;12.80;99.90
52167;DHT22;38149;52.666;6.428;2022-10-16T06:40:29;12.90;99.90
52167;DHT22;38149;52.666;6.428;2022-10-16T06:42:55;13.10;99.90
52167;DHT22;38149;52.666;6.428;2022-10-16T06:45:21;12.80;99.90
52167;DHT22;38149;52.666;6.428;2022-10-16T06:47:46;12.90;99.90
52167;DHT22;38149;52.666;6.428;2022-10-16T06:50:12;13.50;99.90
52167;DHT22;38149;52.666;6.428;2022-10-16T06:52:39;12.90;99.90
52167;DHT22;38149;52.666;6.428;2022-10-16T06:55:05;13.40;99.90
52167;DHT22;38149;52.666;6.428;2022-10-16T06:57:31;13.00;99.90
52167;DHT22;38149;52.666;6.428;2022-10-16T06:59:56;12.80;99.90
52167;DHT22;38149;52.666;6.428;2022-10-16T07:02:22;13.10;99.90
52167;DHT22;38149;52.666;6.428;2022-10-16T07:04:48;13.10;99.90
52167;DHT22;38149;52.666;6.428;2022-10-16T07:07:14;12.80;99.90
52167;DHT22;38149;52.666;6.428;2022-10-16T07:09:40;13.00;99.90
52167;DHT22;38149;52.666;6.428;2022-10-16T07:12:06;13.00;99.90
52167;DHT22;38149;52.666;6.428;2022-10-16T07:14:31;12.90;99.90
52167;DHT22;38149;52.666;6.428;2022-10-16T07:16:57;13.00;99.90
52167;DHT22;38149;52.666;6.428;2022-10-16T07:19:23;13.00;99.90
52167;DHT22;38149;52.666;6.428;2022-10-16T07:21:49;12.90;99.90
52167;DHT22;38149;52.666;6.428;2022-10-16T07:24:15;13.10;99.90
52167;DHT22;38149;52.666;6.428;2022-10-16T07:26:43;13.10;99.90
52167;DHT22;38149;52.666;6.428;2022-10-16T07:29:19;13.10;99.90
52167;DHT22;38149;52.666;6.428;2022-10-16T07:31:47;13.20;99.90
52167;DHT22;38149;52.666;6.428;2022-10-16T07:34:14;13.30;99.90
52167;DHT22;38149;52.666;6.428;2022-10-16T07:36:40;13.10;99.90
52167;DHT22;38149;52.666;6.428;2022-10-16T07:39:06;13.20;99.90
52167;DHT22;38149;52.666;6.428;2022-10-16T07:41:32;13.20;99.90
52167;DHT22;38149;52.666;6.428;2022-10-16T07:44:02;13.20;99.90
52167;DHT22;38149;52.666;6.428;2022-10-16T07:46:29;13.20;99.90
52167;DHT22;38149;52.666;6.428;2022-10-16T07:48:55;13.20;99.90
52167;DHT22;38149;52.666;6.428;2022-10-16T07:51:23;13.20;99.90
52167;DHT22;38149;52.666;6.428;2022-10-16T07:53:50;13.50;99.90
52167;DHT22;38149;52.666;6.428;2022-10-16T07:56:17;13.20;99.90
52167;DHT22;38149;52.666;6.428;2022-10-16T08:01:12;13.60;99.90
52167;DHT22;38149;52.666;6.428;2022-10-16T08:18:22;13.60;99.90
52167;DHT22;38149;52.666;6.428;2022-10-16T08:20:57;13.80;99.90
52167;DHT22;38149;52.666;6.428;2022-10-16T08:23:25;14.00;99.90
52167;DHT22;38149;52.666;6.428;2022-10-16T08:25:52;14.00;99.90
52167;DHT22;38149;52.666;6.428;2022-10-16T08:28:19;13.60;99.90
52167;DHT22;38149;52.666;6.428;2022-10-16T08:30:47;13.70;99.90
52167;DHT22;38149;52.666;6.428;2022-10-16T09:16:14;14.30;99.90
52167;DHT22;38149;52.666;6.428;2022-10-16T09:21:40;14.10;99.90
52167;DHT22;38149;52.666;6.428;2022-10-16T09:24:15;14.60;99.90
52167;DHT22;38149;52.666;6.428;2022-10-16T09:29:15;14.60;99.90
52167;DHT22;38149;52.666;6.428;2022-10-16T09:31:42;14.50;99.90
52167;DHT22;38149;52.666;6.428;2022-10-16T09:34:32;14.60;99.90
52167;DHT22;38149;52.666;6.428;2022-10-16T09:37:04;14.70;99.90
52167;DHT22;38149;52.666;6.428;2022-10-16T09:39:52;14.70;99.90
52167;DHT22;38149;52.666;6.428;2022-10-16T09:44:53;15.00;99.90
52167;DHT22;38149;52.666;6.428;2022-10-16T09:47:29;15.10;99.90
52167;DHT22;38149;52.666;6.428;2022-10-16T09:50:02;14.70;99.90
52167;DHT22;38149;52.666;6.428;2022-10-16T10:02:37;15.10;99.90
52167;DHT22;38149;52.666;6.428;2022-10-16T10:07:43;15.10;99.90
52167;DHT22;38149;52.666;6.428;2022-10-16T10:10:21;15.20;99.90
52167;DHT22;38149;52.666;6.428;2022-10-16T10:12:49;15.30;99.90
52167;DHT22;38149;52.666;6.428;2022-10-16T10:15:15;15.30;99.90
52167;DHT22;38149;52.666;6.428;2022-10-16T10:17:56;15.30;99.90
52167;DHT22;38149;52.666;6.428;2022-10-16T10:31:27;15.40;99.90
52167;DHT22;38149;52.666;6.428;2022-10-16T10:34:32;15.60;99.90
52167;DHT22;38149;52.666;6.428;2022-10-16T10:43:09;15.60;99.90
52167;DHT22;38149;52.666;6.428;2022-10-16T10:45:59;15.80;99.90
52167;DHT22;38149;52.666;6.428;2022-10-16T10:51:08;15.60;99.90
52167;DHT22;38149;52.666;6.428;2022-10-16T10:53:52;15.60;99.90
52167;DHT22;38149;52.666;6.428;2022-10-16T11:00:09;15.60;99.90
52167;DHT22;38149;52.666;6.428;2022-10-16T11:12:00;15.80;99.90
52167;DHT22;38149;52.666;6.428;2022-10-16T11:20:47;16.10;99.90
52167;DHT22;38149;52.666;6.428;2022-10-16T11:23:23;16.20;99.90
52167;DHT22;38149;52.666;6.428;2022-10-16T11:25:54;16.30;99.90
52167;DHT22;38149;52.666;6.428;2022-10-16T11:28:42;16.30;99.90
52167;DHT22;38149;52.666;6.428;2022-10-16T11:31:36;16.20;99.90
52167;DHT22;38149;52.666;6.428;2022-10-16T11:36:56;16.70;99.90
52167;DHT22;38149;52.666;6.428;2022-10-16T11:39:26;16.60;99.90
52167;DHT22;38149;52.666;6.428;2022-10-16T11:42:03;16.40;99.90
52167;DHT22;38149;52.666;6.428;2022-10-16T11:52:43;16.50;99.90
52167;DHT22;38149;52.666;6.428;2022-10-16T11:55:39;16.80;99.90
52167;DHT22;38149;52.666;6.428;2022-10-16T12:37:54;16.90;99.90
52167;DHT22;38149;52.666;6.428;2022-10-16T12:40:32;17.10;99.90
52167;DHT22;38149;52.666;6.428;2022-10-16T12:45:38;16.70;99.90
52167;DHT22;38149;52.666;6.428;2022-10-16T12:48:20;16.80;99.90
52167;DHT22;38149;52.666;6.428;2022-10-16T12:50:47;16.80;99.90
52167;DHT22;38149;52.666;6.428;2022-10-16T12:53:21;16.80;99.90
52167;DHT22;38149;52.666;6.428;2022-10-16T12:56:16;16.90;99.90
52167;DHT22;38149;52.666;6.428;2022-10-16T13:04:47;16.70;99.90
52167;DHT22;38149;52.666;6.428;2022-10-16T13:19:06;16.70;99.90
52167;DHT22;38149;52.666;6.428;2022-10-16T13:27:49;16.90;99.90
52167;DHT22;38149;52.666;6.428;2022-10-16T13:30:23;17.00;99.90
52167;DHT22;38149;52.666;6.428;2022-10-16T14:21:50;17.60;99.90
52167;DHT22;38149;52.666;6.428;2022-10-16T14:24:35;17.90;99.90
52167;DHT22;38149;52.666;6.428;2022-10-16T14:27:02;17.80;99.90
52167;DHT22;38149;52.666;6.428;2022-10-16T14:29:29;17.90;99.90
52167;DHT22;38149;52.666;6.428;2022-10-16T14:42:23;17.90;99.90
52167;DHT22;38149;52.666;6.428;2022-10-16T14:52:22;17.80;99.90
52167;DHT22;38149;52.666;6.428;2022-10-16T14:57:22;17.80;99.90
52167;DHT22;38149;52.666;6.428;2022-10-16T15:55:35;17.30;99.90
52167;DHT22;38149;52.666;6.428;2022-10-16T15:58:03;17.30;99.90
52167;DHT22;38149;52.666;6.428;2022-10-16T16:00:29;17.30;99.90
52167;DHT22;38149;52.666;6.428;2022-10-16T16:05:22;17.60;99.90
52167;DHT22;38149;52.666;6.428;2022-10-16T16:10:17;17.10;99.90
52167;DHT22;38149;52.666;6.428;2022-10-16T16:17:46;17.20;99.90
52167;DHT22;38149;52.666;6.428;2022-10-16T16:35:02;17.10;99.90
52167;DHT22;38149;52.666;6.428;2022-10-16T16:37:28;16.90;99.90
52167;DHT22;38149;52.666;6.428;2022-10-16T16:39:55;17.00;99.90
52167;DHT22;38149;52.666;6.428;2022-10-16T16:44:53;16.70;99.90
52167;DHT22;38149;52.666;6.428;2022-10-16T16:54:39;16.70;99.90
52167;DHT22;38149;52.666;6.428;2022-10-16T16:59:30;16.40;99.90
52167;DHT22;38149;52.666;6.428;2022-10-16T17:01:59;16.30;99.90
52167;DHT22;38149;52.666;6.428;2022-10-16T17:04:25;17.00;99.90
52167;DHT22;38149;52.666;6.428;2022-10-16T17:06:53;16.30;99.90
52167;DHT22;38149;52.666;6.428;2022-10-16T17:09:20;16.20;99.90
52167;DHT22;38149;52.666;6.428;2022-10-16T17:11:46;16.20;99.90
52167;DHT22;38149;52.666;6.428;2022-10-16T17:14:14;15.90;99.90
52167;DHT22;38149;52.666;6.428;2022-10-16T17:19:14;15.60;99.90
52167;DHT22;38149;52.666;6.428;2022-10-16T17:21:42;16.30;99.90
52167;DHT22;38149;52.666;6.428;2022-10-16T17:24:08;16.30;99.90
52167;DHT22;38149;52.666;6.428;2022-10-16T17:26:35;16.40;99.90
52167;DHT22;38149;52.666;6.428;2022-10-16T17:29:11;16.20;99.90
52167;DHT22;38149;52.666;6.428;2022-10-16T17:34:07;15.80;99.90
52167;DHT22;38149;52.666;6.428;2022-10-16T17:39:04;15.70;99.90
52167;DHT22;38149;52.666;6.428;2022-10-16T17:41:33;15.90;99.90
52167;DHT22;38149;52.666;6.428;2022-10-16T17:43:59;15.90;99.90
52167;DHT22;38149;52.666;6.428;2022-10-16T17:48:53;15.60;99.90
52167;DHT22;38149;52.666;6.428;2022-10-16T17:51:22;16.00;99.90
52167;DHT22;38149;52.666;6.428;2022-10-16T17:53:51;15.70;99.90
52167;DHT22;38149;52.666;6.428;2022-10-16T17:58:50;15.70;99.90
52167;DHT22;38149;52.666;6.428;2022-10-16T18:01:22;15.70;99.90
52167;DHT22;38149;52.666;6.428;2022-10-16T18:06:17;15.50;99.90
52167;DHT22;38149;52.666;6.428;2022-10-16T18:13:37;15.40;99.90
52167;DHT22;38149;52.666;6.428;2022-10-16T18:20:59;15.30;99.90
52167;DHT22;38149;52.666;6.428;2022-10-16T18:23:26;15.20;99.90
52167;DHT22;38149;52.666;6.428;2022-10-16T18:25:53;15.20;99.90
52167;DHT22;38149;52.666;6.428;2022-10-16T18:28:19;15.20;99.90
52167;DHT22;38149;52.666;6.428;2022-10-16T18:30:53;15.20;99.90
52167;DHT22;38149;52.666;6.428;2022-10-16T18:33:19;15.10;99.90
52167;DHT22;38149;52.666;6.428;2022-10-16T18:35:45;15.10;99.90
52167;DHT22;38149;52.666;6.428;2022-10-16T18:38:11;15.10;99.90
52167;DHT22;38149;52.666;6.428;2022-10-16T18:40:36;15.00;99.90
52167;DHT22;38149;52.666;6.428;2022-10-16T18:43:02;15.10;99.90
52167;DHT22;38149;52.666;6.428;2022-10-16T18:45:28;15.10;99.90
52167;DHT22;38149;52.666;6.428;2022-10-16T18:47:54;15.00;99.90
52167;DHT22;38149;52.666;6.428;2022-10-16T18:50:21;15.00;99.90
52167;DHT22;38149;52.666;6.428;2022-10-16T18:52:47;15.00;99.90
52167;DHT22;38149;52.666;6.428;2022-10-16T18:55:13;15.30;99.90
52167;DHT22;38149;52.666;6.428;2022-10-16T18:57:39;15.20;99.90
52167;DHT22;38149;52.666;6.428;2022-10-16T19:00:05;15.00;99.90
52167;DHT22;38149;52.666;6.428;2022-10-16T19:07:24;14.90;99.90
52167;DHT22;38149;52.666;6.428;2022-10-16T19:09:50;14.90;99.90
52167;DHT22;38149;52.666;6.428;2022-10-16T19:12:16;14.80;99.90
52167;DHT22;38149;52.666;6.428;2022-10-16T19:14:42;14.90;99.90
52167;DHT22;38149;52.666;6.428;2022-10-16T19:17:08;14.80;99.90
52167;DHT22;38149;52.666;6.428;2022-10-16T19:19:33;14.80;99.90
52167;DHT22;38149;52.666;6.428;2022-10-16T19:21:59;14.80;99.90
52167;DHT22;38149;52.666;6.428;2022-10-16T19:24:43;14.80;99.90
52167;DHT22;38149;52.666;6.428;2022-10-16T19:27:09;14.80;99.90
52167;DHT22;38149;52.666;6.428;2022-10-16T19:29:35;14.70;99.90
52167;DHT22;38149;52.666;6.428;2022-10-16T19:32:01;14.80;99.90
52167;DHT22;38149;52.666;6.428;2022-10-16T19:34:30;14.80;99.90
52167;DHT22;38149;52.666;6.428;2022-10-16T19:36:56;14.00;99.90
52167;DHT22;38149;52.666;6.428;2022-10-16T19:39:21;14.80;99.90
52167;DHT22;38149;52.666;6.428;2022-10-16T19:41:49;14.70;99.90
52167;DHT22;38149;52.666;6.428;2022-10-16T19:44:16;14.70;99.90
52167;DHT22;38149;52.666;6.428;2022-10-16T19:46:43;14.70;99.90
52167;DHT22;38149;52.666;6.428;2022-10-16T19:49:14;14.70;99.90
52167;DHT22;38149;52.666;6.428;2022-10-16T19:51:46;14.70;99.90
52167;DHT22;38149;52.666;6.428;2022-10-16T19:54:16;14.50;99.90
52167;DHT22;38149;52.666;6.428;2022-10-16T19:56:42;14.70;99.90
52167;DHT22;38149;52.666;6.428;2022-10-16T19:59:09;14.60;99.90
52167;DHT22;38149;52.666;6.428;2022-10-16T20:01:37;14.60;99.90
52167;DHT22;38149;52.666;6.428;2022-10-16T20:11:25;14.60;99.90
52167;DHT22;38149;52.666;6.428;2022-10-16T20:13:53;14.60;99.90
52167;DHT22;38149;52.666;6.428;2022-10-16T20:16:19;14.60;99.90
52167;DHT22;38149;52.666;6.428;2022-10-16T20:18:48;14.50;99.90
52167;DHT22;38149;52.666;6.428;2022-10-16T20:21:21;14.60;99.90
52167;DHT22;38149;52.666;6.428;2022-10-16T20:23:49;14.50;99.90
52167;DHT22;38149;52.666;6.428;2022-10-16T20:26:18;14.50;99.90
52167;DHT22;38149;52.666;6.428;2022-10-16T20:28:44;14.50;99.90
52167;DHT22;38149;52.666;6.428;2022-10-16T20:31:14;14.40;99.90
52167;DHT22;38149;52.666;6.428;2022-10-16T20:33:43;14.50;99.90
52167;DHT22;38149;52.666;6.428;2022-10-16T20:36:13;14.40;99.90
52167;DHT22;38149;52.666;6.428;2022-10-16T20:38:40;14.40;99.90
52167;DHT22;38149;52.666;6.428;2022-10-16T20:41:07;14.50;99.90
52167;DHT22;38149;52.666;6.428;2022-10-16T20:43:35;14.50;99.90
52167;DHT22;38149;52.666;6.428;2022-10-16T20:46:03;14.60;99.90
52167;DHT22;38149;52.666;6.428;2022-10-16T20:48:30;14.60;99.90
52167;DHT22;38149;52.666;6.428;2022-10-16T20:50:56;14.70;99.90
52167;DHT22;38149;52.666;6.428;2022-10-16T20:53:24;14.40;99.90
52167;DHT22;38149;52.666;6.428;2022-10-16T20:55:50;14.40;99.90
52167;DHT22;38149;52.666;6.428;2022-10-16T20:58:16;14.40;99.90
52167;DHT22;38149;52.666;6.428;2022-10-16T21:00:43;14.40;99.90
52167;DHT22;38149;52.666;6.428;2022-10-16T21:03:10;14.40;99.90
52167;DHT22;38149;52.666;6.428;2022-10-16T21:05:40;14.30;99.90
52167;DHT22;38149;52.666;6.428;2022-10-16T21:08:06;14.30;99.90
52167;DHT22;38149;52.666;6.428;2022-10-16T21:10:32;14.20;99.90
52167;DHT22;38149;52.666;6.428;2022-10-16T21:15:24;14.40;99.90
52167;DHT22;38149;52.666;6.428;2022-10-16T21:17:49;14.20;99.90
52167;DHT22;38149;52.666;6.428;2022-10-16T21:20:16;14.20;99.90
52167;DHT22;38149;52.666;6.428;2022-10-16T21:22:41;14.20;99.90
52167;DHT22;38149;52.666;6.428;2022-10-16T21:25:07;14.70;99.90
52167;DHT22;38149;52.666;6.428;2022-10-16T21:27:37;14.20;99.90
52167;DHT22;38149;52.666;6.428;2022-10-16T21:30:05;15.00;99.90
52167;DHT22;38149;52.666;6.428;2022-10-16T21:32:35;14.40;99.90
52167;DHT22;38149;52.666;6.428;2022-10-16T21:35:01;14.50;99.90
52167;DHT22;38149;52.666;6.428;2022-10-16T21:37:27;14.40;99.90
52167;DHT22;38149;52.666;6.428;2022-10-16T21:39:56;14.40;99.90
52167;DHT22;38149;52.666;6.428;2022-10-16T21:42:22;14.50;99.90
52167;DHT22;38149;52.666;6.428;2022-10-16T21:44:48;14.70;99.90
52167;DHT22;38149;52.666;6.428;2022-10-16T21:47:13;14.70;99.90
52167;DHT22;38149;52.666;6.428;2022-10-16T21:49:39;14.40;99.90
52167;DHT22;38149;52.666;6.428;2022-10-16T21:52:05;14.60;99.90
52167;DHT22;38149;52.666;6.428;2022-10-16T21:54:30;14.70;99.90
52167;DHT22;38149;52.666;6.428;2022-10-16T21:56:56;14.60;99.90
52167;DHT22;38149;52.666;6.428;2022-10-16T21:59:22;14.30;99.90
52167;DHT22;38149;52.666;6.428;2022-10-16T22:01:48;14.80;99.90
52167;DHT22;38149;52.666;6.428;2022-10-16T22:04:17;14.60;99.90
52167;DHT22;38149;52.666;6.428;2022-10-16T22:06:43;14.10;99.90
52167;DHT22;38149;52.666;6.428;2022-10-16T22:09:09;14.20;99.90
52167;DHT22;38149;52.666;6.428;2022-10-16T22:11:41;14.10;99.90
52167;DHT22;38149;52.666;6.428;2022-10-16T22:14:10;14.10;99.90
52167;DHT22;38149;52.666;6.428;2022-10-16T22:16:38;14.20;99.90
52167;DHT22;38149;52.666;6.428;2022-10-16T22:19:05;14.10;99.90
52167;DHT22;38149;52.666;6.428;2022-10-16T22:21:35;14.10;99.90
52167;DHT22;38149;52.666;6.428;2022-10-16T22:24:02;14.10;99.90
52167;DHT22;38149;52.666;6.428;2022-10-16T22:26:28;14.10;99.90
52167;DHT22;38149;52.666;6.428;2022-10-16T22:28:54;14.10;99.90
52167;DHT22;38149;52.666;6.428;2022-10-16T22:31:21;14.10;99.90
52167;DHT22;38149;52.666;6.428;2022-10-16T22:33:55;14.30;99.90
52167;DHT22;38149;52.666;6.428;2022-10-16T22:36:25;14.20;99.90
52167;DHT22;38149;52.666;6.428;2022-10-16T22:38:51;14.30;99.90
52167;DHT22;38149;52.666;6.428;2022-10-16T22:41:18;14.30;99.90
52167;DHT22;38149;52.666;6.428;2022-10-16T22:43:45;14.50;99.90
52167;DHT22;38149;52.666;6.428;2022-10-16T22:46:18;14.60;99.90
52167;DHT22;38149;52.666;6.428;2022-10-16T22:48:48;14.60;99.90
52167;DHT22;38149;52.666;6.428;2022-10-16T22:51:14;14.50;99.90
52167;DHT22;38149;52.666;6.428;2022-10-16T22:53:40;14.50;99.90
52167;DHT22;38149;52.666;6.428;2022-10-16T22:56:07;14.70;99.90
52167;DHT22;38149;52.666;6.428;2022-10-16T22:58:34;14.30;99.90
52167;DHT22;38149;52.666;6.428;2022-10-16T23:01:00;14.30;99.90
52167;DHT22;38149;52.666;6.428;2022-10-16T23:03:26;14.50;99.90
52167;DHT22;38149;52.666;6.428;2022-10-16T23:05:52;14.60;99.90
52167;DHT22;38149;52.666;6.428;2022-10-16T23:10:45;14.20;99.90